Hatsu Envoy — VSQL9 — position and weather

sailwx.info

Track history (hours):
 
Tides and Currents Weather Stations Pressure Air Temp Water Temp Dewpoint Dewpoint Depression Visibility Wind Speed Wind Dir Waves Ship Positions

Hatsu Envoy

Last reported at 2014-Oct-23 12:05 UTC. Time now 2014-Oct-24 10:29 UTC.
Position N 35°57' E 120°45'.

Type: Ship (hazmat cat D). MMSI: 235414000.

Date/timePositionNaut miles runAvg speedWind from/ knotsBaromVisibWave heightAir tempDewpointWater temp
2014-Oct-23 12:05N 35°57' E 120°45'1018.6
2014-Oct-23 11:33N 35°56' E 120°57'  
2014-Oct-19 17:31N 34°03' E 134°56'1515.4
2014-Oct-19 16:33N 34°17' E 134°58'1717.6
2014-Oct-19 15:33N 34°32' E 135°09'1313.0
2014-Oct-19 14:33N 34°38' E 135°23'1 1.1
2014-Oct-19 13:30N 34°39' E 135°24'0 0.0
2014-Oct-19 12:33N 34°39' E 135°24'0 0.0
2014-Oct-19 11:33N 34°39' E 135°24'0 0.0
2014-Oct-19 10:33N 34°39' E 135°24'0 0.0
2014-Oct-19 09:33N 34°39' E 135°24'0 0.0
2014-Oct-19 08:33N 34°39' E 135°24'0 0.0
2014-Oct-19 07:33N 34°39' E 135°24'9 9.0
2014-Oct-19 06:33N 34°33' E 135°16'1717.2
2014-Oct-19 05:33N 34°20' E 135°02'1212.4
2014-Oct-19 04:33N 34°08' E 134°60'1211.9
2014-Oct-19 03:33N 33°56' E 134°60'24315.2
2014-Oct-18 11:32N 35°05' E 139°43'1212.4
2014-Oct-18 10:33N 35°18' E 139°45'1111.4
2014-Oct-18 09:33N 35°28' E 139°49'8 8.3
2014-Oct-18 08:32N 35°37' E 139°47'0 0.3
2014-Oct-18 07:33N 35°37' E 139°47'0 0.0
2014-Oct-18 05:15N 35°37' E 139°47'0 0.0
2014-Oct-18 03:32N 35°37' E 139°47'0 0.0
2014-Oct-18 02:33N 35°37' E 139°47'0 0.0
2014-Oct-18 01:31N 35°37' E 139°47'0 0.1
2014-Oct-18 00:32N 35°37' E 139°47'0 0.0
2014-Oct-17 23:24N 35°37' E 139°47'0 0.0
2014-Oct-17 19:32N 35°37' E 139°47'0 0.0
2014-Oct-17 18:33N 35°37' E 139°47'0 0.0
2014-Oct-17 17:33N 35°37' E 139°47'0 0.0
2014-Oct-17 16:33N 35°37' E 139°47'0 0.0
2014-Oct-17 15:33N 35°37' E 139°47'0 0.0
2014-Oct-17 14:33N 35°37' E 139°47'7 6.9
2014-Oct-17 13:31N 35°31' E 139°52'1212.9
2014-Oct-17 12:33N 35°20' E 139°45'1211.8
2014-Oct-17 11:33N 35°09' E 139°46'  
Track history (hours):
 
Tides and Currents Weather Stations Pressure Air Temp Water Temp Dewpoint Dewpoint Depression Visibility Wind Speed Wind Dir Waves Ship Positions

Hatsu Envoy

Last reported at 2014-Oct-23 12:05 UTC. Time now 2014-Oct-24 10:29 UTC.
Position N 35°57' E 120°45'.

Type: Ship (hazmat cat D). MMSI: 235414000.

Date/timePositionNaut miles runAvg speedWind from/ knotsBaromVisibWave heightAir tempDewpointWater temp
2014-Oct-23 12:05N 35°57' E 120°45'1018.6
2014-Oct-23 11:33N 35°56' E 120°57'  
2014-Oct-19 17:31N 34°03' E 134°56'1515.4
2014-Oct-19 16:33N 34°17' E 134°58'1717.6
2014-Oct-19 15:33N 34°32' E 135°09'1313.0
2014-Oct-19 14:33N 34°38' E 135°23'1 1.1
2014-Oct-19 13:30N 34°39' E 135°24'0 0.0
2014-Oct-19 12:33N 34°39' E 135°24'0 0.0
2014-Oct-19 11:33N 34°39' E 135°24'0 0.0
2014-Oct-19 10:33N 34°39' E 135°24'0 0.0
2014-Oct-19 09:33N 34°39' E 135°24'0 0.0
2014-Oct-19 08:33N 34°39' E 135°24'0 0.0
2014-Oct-19 07:33N 34°39' E 135°24'9 9.0
2014-Oct-19 06:33N 34°33' E 135°16'1717.2
2014-Oct-19 05:33N 34°20' E 135°02'1212.4
2014-Oct-19 04:33N 34°08' E 134°60'1211.9
2014-Oct-19 03:33N 33°56' E 134°60'24315.2
2014-Oct-18 11:32N 35°05' E 139°43'1212.4
2014-Oct-18 10:33N 35°18' E 139°45'1111.4
2014-Oct-18 09:33N 35°28' E 139°49'8 8.3
2014-Oct-18 08:32N 35°37' E 139°47'0 0.3
2014-Oct-18 07:33N 35°37' E 139°47'0 0.0
2014-Oct-18 05:15N 35°37' E 139°47'0 0.0
2014-Oct-18 03:32N 35°37' E 139°47'0 0.0
2014-Oct-18 02:33N 35°37' E 139°47'0 0.0
2014-Oct-18 01:31N 35°37' E 139°47'0 0.1
2014-Oct-18 00:32N 35°37' E 139°47'0 0.0
2014-Oct-17 23:24N 35°37' E 139°47'0 0.0
2014-Oct-17 19:32N 35°37' E 139°47'0 0.0
2014-Oct-17 18:33N 35°37' E 139°47'0 0.0
2014-Oct-17 17:33N 35°37' E 139°47'0 0.0
2014-Oct-17 16:33N 35°37' E 139°47'0 0.0
2014-Oct-17 15:33N 35°37' E 139°47'0 0.0
2014-Oct-17 14:33N 35°37' E 139°47'7 6.9
2014-Oct-17 13:31N 35°31' E 139°52'1212.9
2014-Oct-17 12:33N 35°20' E 139°45'1211.8
2014-Oct-17 11:33N 35°09' E 139°46'  

Dump ship's entire track history